Time;durP1;ratioP1;P1;durP2;ratioP2;P2;SDS_P1;SDS_P2;PMS_P1;PMS_P2;Temp;Humidity;BMP_temperature;BMP_pressure;BME280_temperature;BME280_humidity;BME280_pressure;Samples;Min_cycle;Max_cycle;Signal;HPM_P1;HPM_P2
2023/10/02 00:01:10;;;;;;;16.45;8.55;;;17.30;99.90;;;;;;5055731;28;20045;-83
2023/10/02 00:03:41;;;;;;;18.60;9.80;;;17.30;99.90;;;;;;5059237;28;20107;-83
2023/10/02 00:06:09;;;;;;;17.80;9.35;;;17.20;99.90;;;;;;5059218;28;20051;-82
2023/10/02 00:08:51;;;;;;;19.65;9.55;;;17.30;99.90;;;;;;5052036;28;20126;-82
2023/10/02 00:11:36;;;;;;;18.95;9.80;;;17.20;99.90;;;;;;5056626;28;20052;-83
2023/10/02 00:14:20;;;;;;;19.77;8.80;;;17.20;99.90;;;;;;5038440;28;20390;-83
2023/10/02 00:16:59;;;;;;;17.63;8.97;;;17.20;99.90;;;;;;5055880;28;20115;-82
2023/10/02 00:19:40;;;;;;;18.63;9.60;;;17.10;99.90;;;;;;5053137;28;20057;-82
2023/10/02 00:22:52;;;;;;;19.42;9.13;;;17.10;99.90;;;;;;5035551;28;20127;-82
2023/10/02 00:25:02;;;;;;;22.10;10.63;;;17.10;99.90;;;;;;5048694;28;20052;-82
2023/10/02 00:27:32;;;;;;;18.02;9.50;;;17.10;99.90;;;;;;5051009;28;20049;-82
2023/10/02 00:29:58;;;;;;;22.15;9.90;;;17.00;99.90;;;;;;5052826;28;20090;-83
2023/10/02 00:32:29;;;;;;;21.15;10.77;;;17.00;99.90;;;;;;5047561;28;20097;-84
2023/10/02 00:34:58;;;;;;;21.08;10.15;;;17.00;99.90;;;;;;5055102;28;20057;-82
2023/10/02 00:37:51;;;;;;;22.13;10.60;;;17.00;99.90;;;;;;5035738;28;20041;-80
2023/10/02 00:40:20;;;;;;;18.83;9.40;;;17.00;99.90;;;;;;5037521;28;20048;-81
2023/10/02 00:42:49;;;;;;;22.75;10.63;;;17.00;99.90;;;;;;5052491;28;20049;-81
2023/10/02 00:45:18;;;;;;;19.70;10.15;;;17.00;99.90;;;;;;5051508;28;20054;-81
2023/10/02 00:47:48;;;;;;;19.38;9.18;;;17.00;99.90;;;;;;5049572;28;21341;-81
2023/10/02 00:50:18;;;;;;;18.30;9.05;;;17.00;99.90;;;;;;5051742;28;20073;-81
2023/10/02 00:52:56;;;;;;;17.02;9.10;;;17.00;99.90;;;;;;5055426;28;20048;-80
2023/10/02 00:55:33;;;;;;;18.92;10.77;;;17.00;99.90;;;;;;5048012;28;20045;-83
2023/10/02 00:58:03;;;;;;;15.80;8.95;;;17.00;99.90;;;;;;5035819;28;20049;-81
2023/10/02 01:00:35;;;;;;;15.93;9.65;;;17.00;99.90;;;;;;5026284;28;20053;-81
2023/10/02 01:03:04;;;;;;;25.30;11.45;;;17.00;99.90;;;;;;5051574;28;20049;-81
2023/10/02 01:05:41;;;;;;;23.33;11.75;;;17.00;99.90;;;;;;5043445;28;20064;-81
2023/10/02 01:08:24;;;;;;;22.27;12.23;;;17.00;99.90;;;;;;5046222;28;20562;-82
2023/10/02 01:10:57;;;;;;;25.83;12.95;;;17.00;99.90;;;;;;5050764;28;20389;-81
2023/10/02 01:13:30;;;;;;;25.15;12.75;;;16.90;99.90;;;;;;5047724;28;20052;-81
2023/10/02 01:16:03;;;;;;;25.02;11.77;;;17.00;99.90;;;;;;5053914;28;20079;-81
2023/10/02 01:18:39;;;;;;;23.55;12.40;;;16.90;99.90;;;;;;5064921;28;20076;-81
2023/10/02 01:21:11;;;;;;;23.60;11.63;;;16.90;99.90;;;;;;5055446;28;20106;-81
2023/10/02 01:24:07;;;;;;;24.42;13.40;;;16.90;99.90;;;;;;5041365;28;20041;-81
2023/10/02 01:26:41;;;;;;;;;;;16.80;99.90;;;;;;5046803;28;20138;-81
2023/10/02 01:29:10;;;;;;;26.08;12.57;;;16.80;99.90;;;;;;5050745;28;19920;-81
2023/10/02 01:31:51;;;;;;;25.92;11.73;;;16.80;99.90;;;;;;5043932;28;20064;-82
2023/10/02 01:34:33;;;;;;;27.42;13.18;;;16.80;99.90;;;;;;5025374;28;20045;-80
2023/10/02 01:37:32;;;;;;;24.05;11.68;;;16.80;99.90;;;;;;5053818;28;20057;-84
2023/10/02 01:39:47;;;;;;;26.20;13.45;;;16.70;99.90;;;;;;5052937;28;20060;-81
2023/10/02 01:42:14;;;;;;;24.42;12.35;;;16.70;99.90;;;;;;5051184;28;20041;-80
2023/10/02 01:44:54;;;;;;;26.05;12.52;;;16.70;99.90;;;;;;5054306;28;20048;-81
2023/10/02 01:47:20;;;;;;;24.70;13.32;;;16.70;99.90;;;;;;5035282;28;20045;-82
2023/10/02 01:49:47;;;;;;;23.75;13.20;;;16.80;99.90;;;;;;5043935;28;20445;-83
2023/10/02 01:52:13;;;;;;;21.13;12.35;;;16.70;99.90;;;;;;5034376;28;20045;-81
2023/10/02 01:54:40;;;;;;;21.23;11.45;;;16.70;99.90;;;;;;5047743;28;20040;-81
2023/10/02 01:57:06;;;;;;;18.42;10.15;;;16.70;99.90;;;;;;5053151;28;20045;-82
2023/10/02 01:59:32;;;;;;;18.48;10.98;;;16.70;99.90;;;;;;5051247;28;20115;-82
2023/10/02 02:01:58;;;;;;;25.35;12.63;;;16.70;99.90;;;;;;5053604;28;20045;-82
2023/10/02 02:04:32;;;;;;;20.60;11.50;;;16.70;99.90;;;;;;5039928;28;20453;-81
2023/10/02 02:07:01;;;;;;;25.60;14.27;;;16.70;99.90;;;;;;5036150;28;20045;-82
2023/10/02 02:09:30;;;;;;;24.13;13.85;;;16.60;99.90;;;;;;5047659;28;20056;-82
2023/10/02 02:12:13;;;;;;;22.67;13.00;;;16.60;99.90;;;;;;5053785;28;20515;-81
2023/10/02 02:14:52;;;;;;;20.88;12.80;;;16.60;99.90;;;;;;5050749;28;20048;-81
2023/10/02 02:17:26;;;;;;;24.15;12.07;;;16.60;99.90;;;;;;5049932;28;20037;-82
2023/10/02 02:19:53;;;;;;;24.27;13.43;;;16.60;99.90;;;;;;5048544;28;20127;-81
2023/10/02 02:22:31;;;;;;;27.38;12.40;;;16.60;99.90;;;;;;5035246;28;20049;-81
2023/10/02 02:25:00;;;;;;;25.13;13.75;;;16.60;99.90;;;;;;5035085;28;20428;-82
2023/10/02 02:27:27;;;;;;;22.40;12.38;;;16.60;99.90;;;;;;5045303;28;20044;-82
2023/10/02 02:29:56;;;;;;;22.63;12.75;;;16.60;99.90;;;;;;5033220;28;20040;-81
2023/10/02 02:35:26;;;;;;;24.27;12.95;;;16.50;99.90;;;;;;5028554;28;20088;-83
2023/10/02 02:37:52;;;;;;;25.55;13.57;;;16.50;99.90;;;;;;5020804;28;20079;-83
2023/10/02 02:40:24;;;;;;;24.23;11.65;;;16.50;99.90;;;;;;5040546;28;20064;-82
2023/10/02 02:42:54;;;;;;;22.80;12.90;;;16.50;99.90;;;;;;5052209;28;20115;-83
2023/10/02 02:45:28;;;;;;;26.08;14.75;;;16.50;99.90;;;;;;5048396;28;20037;-83
2023/10/02 02:47:54;;;;;;;24.13;13.23;;;16.40;99.90;;;;;;5043386;28;20068;-83
2023/10/02 02:50:32;;;;;;;23.15;13.50;;;16.40;99.90;;;;;;5042116;28;20417;-83
2023/10/02 02:55:45;;;;;;;25.58;13.52;;;16.40;99.90;;;;;;5034283;28;20128;-82
2023/10/02 02:58:11;;;;;;;26.92;14.95;;;16.40;99.90;;;;;;5045867;28;20068;-83
2023/10/02 03:00:40;;;;;;;21.90;11.77;;;16.40;99.90;;;;;;5033910;28;20061;-82
2023/10/02 03:03:29;;;;;;;27.25;14.27;;;16.40;99.90;;;;;;5037293;28;20550;-83
2023/10/02 03:05:58;;;;;;;26.77;13.93;;;16.40;99.90;;;;;;5051916;28;20053;-83
2023/10/02 03:08:37;;;;;;;24.23;12.98;;;16.40;99.90;;;;;;5047222;28;20127;-83
2023/10/02 03:11:06;;;;;;;28.08;14.73;;;16.40;99.90;;;;;;5034829;28;20044;-83
2023/10/02 03:13:34;;;;;;;27.75;13.80;;;16.40;99.90;;;;;;5040206;28;20049;-82
2023/10/02 03:16:08;;;;;;;23.30;11.60;;;16.40;99.90;;;;;;5043344;28;20191;-83
2023/10/02 03:18:43;;;;;;;24.25;14.30;;;16.40;99.90;;;;;;5018671;28;20140;-83
2023/10/02 03:21:16;;;;;;;24.42;11.90;;;16.40;99.90;;;;;;5044812;28;20057;-82
2023/10/02 03:23:43;;;;;;;25.45;10.95;;;16.40;99.90;;;;;;5025800;28;20123;-83
2023/10/02 03:29:04;;;;;;;28.77;13.40;;;16.40;99.90;;;;;;5047358;28;20830;-83
2023/10/02 03:31:36;;;;;;;24.17;14.00;;;16.40;99.90;;;;;;5044618;28;20393;-81
2023/10/02 03:36:54;;;;;;;24.17;12.90;;;16.40;99.90;;;;;;5049586;28;20080;-81
2023/10/02 03:42:12;;;;;;;27.60;14.02;;;16.30;99.90;;;;;;5047674;28;20073;-83
2023/10/02 03:44:42;;;;;;;22.30;11.13;;;16.30;99.90;;;;;;5054152;28;20095;-84
2023/10/02 03:47:12;;;;;;;27.98;15.70;;;16.30;99.90;;;;;;5054746;28;20049;-83
2023/10/02 03:49:45;;;;;;;27.05;14.68;;;16.30;99.90;;;;;;5052434;28;20087;-82
2023/10/02 03:52:16;;;;;;;24.42;13.10;;;16.30;99.90;;;;;;5045246;28;20056;-83
2023/10/02 03:54:44;;;;;;;22.27;11.88;;;16.30;99.90;;;;;;5036537;28;20052;-82
2023/10/02 03:57:11;;;;;;;27.77;15.38;;;16.20;99.90;;;;;;5055053;28;20057;-84
2023/10/02 03:59:52;;;;;;;20.83;10.85;;;16.20;99.90;;;;;;5053977;28;20041;-82
2023/10/02 04:02:25;;;;;;;28.60;13.95;;;16.20;99.90;;;;;;5046394;28;20810;-83
2023/10/02 04:04:51;;;;;;;19.00;9.23;;;16.20;99.90;;;;;;5049024;28;20488;-83
2023/10/02 04:07:17;;;;;;;27.15;13.85;;;16.20;99.90;;;;;;5053176;28;20302;-82
2023/10/02 04:09:49;;;;;;;25.63;13.27;;;16.10;99.90;;;;;;5052969;28;20041;-83
2023/10/02 04:12:19;;;;;;;27.60;13.88;;;16.10;99.90;;;;;;5049100;28;20056;-82
2023/10/02 04:14:46;;;;;;;27.83;14.15;;;16.10;99.90;;;;;;5051255;28;20045;-83
2023/10/02 04:19:49;;;;;;;23.95;13.18;;;16.10;99.90;;;;;;5051116;28;20052;-83
2023/10/02 04:22:22;;;;;;;28.88;15.00;;;16.10;99.90;;;;;;5044905;28;20064;-82
2023/10/02 04:24:54;;;;;;;21.17;11.80;;;16.10;99.90;;;;;;5051986;28;20048;-82
2023/10/02 04:32:49;;;;;;;27.40;15.38;;;16.00;99.90;;;;;;5051795;28;20052;-82
2023/10/02 04:38:08;;;;;;;28.35;15.80;;;16.00;99.90;;;;;;5051662;28;20132;-83
2023/10/02 04:40:44;;;;;;;31.88;16.50;;;16.00;99.90;;;;;;5051043;28;20037;-83
2023/10/02 04:43:19;;;;;;;26.40;15.50;;;16.00;99.90;;;;;;5051192;28;20136;-82
2023/10/02 04:46:08;;;;;;;31.38;15.10;;;16.00;99.90;;;;;;5049929;28;20048;-84
2023/10/02 04:48:42;;;;;;;29.23;16.02;;;16.00;99.90;;;;;;5052482;28;20365;-82
2023/10/02 04:51:09;;;;;;;24.30;13.50;;;15.90;99.90;;;;;;5046264;28;20056;-82
2023/10/02 04:53:36;;;;;;;30.38;16.25;;;15.90;99.90;;;;;;5052737;28;20040;-81
2023/10/02 04:58:57;;;;;;;29.90;17.00;;;15.90;99.90;;;;;;5047372;28;20049;-82
2023/10/02 05:01:34;;;;;;;26.40;14.18;;;15.90;99.90;;;;;;5052246;28;20045;-81
2023/10/02 05:04:04;;;;;;;26.05;14.25;;;15.90;99.90;;;;;;5039571;28;20060;-81
2023/10/02 05:09:21;;;;;;;29.17;15.77;;;15.90;99.90;;;;;;5052907;28;20057;-84
2023/10/02 05:11:56;;;;;;;27.92;15.57;;;15.90;99.90;;;;;;5052314;28;20061;-82
2023/10/02 05:14:28;;;;;;;28.00;14.95;;;15.90;99.90;;;;;;5045671;28;21573;-82
2023/10/02 05:17:16;;;;;;;31.67;16.70;;;15.90;99.90;;;;;;5045871;28;20110;-83
2023/10/02 05:19:57;;;;;;;29.23;16.42;;;15.90;99.90;;;;;;5051729;28;20049;-82
2023/10/02 05:22:28;;;;;;;32.75;16.38;;;15.90;99.90;;;;;;5045493;28;20060;-82
2023/10/02 05:24:58;;;;;;;27.17;14.80;;;15.90;99.90;;;;;;5050084;28;20424;-83
2023/10/02 05:27:38;;;;;;;28.75;16.17;;;15.90;99.90;;;;;;5042566;28;20127;-83
2023/10/02 05:30:12;;;;;;;30.60;16.42;;;15.90;99.90;;;;;;5049757;28;20488;-84
2023/10/02 05:32:39;;;;;;;;;;;15.90;99.90;;;;;;5054109;28;20489;-82
2023/10/02 05:37:42;;;;;;;28.40;14.82;;;15.80;99.90;;;;;;5047149;28;21158;-80
2023/10/02 05:42:50;;;;;;;30.40;16.58;;;15.90;99.90;;;;;;5050493;28;20045;-80
2023/10/02 05:45:17;;;;;;;32.03;16.92;;;15.80;99.90;;;;;;5043564;28;20045;-80
2023/10/02 05:47:48;;;;;;;35.08;17.20;;;15.80;99.90;;;;;;5042966;28;21109;-80
2023/10/02 05:50:15;;;;;;;31.40;17.58;;;15.80;99.90;;;;;;5050587;28;20044;-81
2023/10/02 05:52:48;;;;;;;29.15;16.80;;;15.80;99.90;;;;;;5044747;28;20080;-80
2023/10/02 05:55:17;;;;;;;33.97;16.52;;;15.80;99.90;;;;;;5046261;28;20049;-81
2023/10/02 05:57:43;;;;;;;29.00;16.08;;;15.80;99.90;;;;;;5049810;28;20425;-81
2023/10/02 06:00:16;;;;;;;29.60;16.00;;;15.80;99.90;;;;;;5045830;28;20154;-80
2023/10/02 06:02:57;;;;;;;27.33;14.93;;;15.80;99.90;;;;;;5044235;28;20060;-80
2023/10/02 06:05:23;;;;;;;32.20;17.08;;;15.70;99.90;;;;;;5047649;28;20518;-80
2023/10/02 06:07:51;;;;;;;25.75;16.17;;;15.80;99.90;;;;;;5028896;28;20102;-81
2023/10/02 06:10:26;;;;;;;31.65;17.38;;;15.80;99.90;;;;;;5045476;28;20056;-79
2023/10/02 06:13:02;;;;;;;28.23;14.90;;;15.80;99.90;;;;;;5043007;28;20045;-80
2023/10/02 06:15:43;;;;;;;29.83;17.27;;;15.80;99.90;;;;;;5032003;28;20045;-81
2023/10/02 06:18:09;;;;;;;33.20;16.88;;;15.80;99.90;;;;;;5049126;28;20405;-80
2023/10/02 06:20:57;;;;;;;31.90;17.38;;;15.80;99.90;;;;;;5030623;28;20530;-81
2023/10/02 06:23:25;;;;;;;27.92;17.15;;;15.90;99.90;;;;;;5043130;28;20041;-80
2023/10/02 06:25:52;;;;;;;28.55;16.80;;;15.90;99.90;;;;;;5043390;28;20060;-78
2023/10/02 06:28:36;;;;;;;28.10;15.57;;;16.00;99.90;;;;;;5037508;28;20045;-80
2023/10/02 06:31:06;;;;;;;30.00;15.70;;;15.90;99.90;;;;;;5042793;28;20076;-83
2023/10/02 06:33:36;;;;;;;28.67;15.27;;;15.90;99.90;;;;;;5049339;28;20056;-82
2023/10/02 06:36:07;;;;;;;32.60;17.00;;;16.00;99.90;;;;;;5048329;28;20045;-82
2023/10/02 06:38:35;;;;;;;32.85;15.80;;;16.00;99.90;;;;;;5032365;28;20369;-83
2023/10/02 06:41:15;;;;;;;24.20;13.80;;;16.00;99.90;;;;;;5047743;28;20151;-82
2023/10/02 06:43:41;;;;;;;31.33;15.38;;;16.00;99.90;;;;;;5047471;28;20123;-82
2023/10/02 06:46:10;;;;;;;29.20;15.50;;;16.10;99.90;;;;;;5047348;28;20055;-80
2023/10/02 06:48:39;;;;;;;30.52;17.17;;;16.10;99.90;;;;;;5041064;28;20036;-81
2023/10/02 06:51:07;;;;;;;33.53;16.48;;;16.10;99.90;;;;;;5046964;28;20103;-82
2023/10/02 06:53:33;;;;;;;26.13;14.93;;;16.10;99.90;;;;;;5045347;28;20045;-82
2023/10/02 06:56:06;;;;;;;26.98;14.98;;;16.10;99.90;;;;;;5029314;28;20095;-83
2023/10/02 06:58:46;;;;;;;31.50;16.60;;;16.20;99.90;;;;;;5047460;28;20811;-83
2023/10/02 07:01:13;;;;;;;31.20;16.83;;;16.20;99.90;;;;;;5036517;28;20060;-83
2023/10/02 07:03:39;;;;;;;29.38;15.25;;;16.20;99.90;;;;;;5042781;28;20048;-82
2023/10/02 07:06:07;;;;;;;29.27;15.40;;;16.20;99.90;;;;;;5049265;28;20079;-83
2023/10/02 07:08:36;;;;;;;27.50;14.75;;;16.20;99.90;;;;;;5047280;28;20037;-82
2023/10/02 07:11:10;;;;;;;27.00;14.95;;;16.20;99.90;;;;;;5050964;28;20044;-82
2023/10/02 07:13:51;;;;;;;32.55;16.60;;;16.20;99.90;;;;;;5050758;28;20092;-82
2023/10/02 07:16:17;;;;;;;28.98;16.35;;;16.20;99.90;;;;;;5052075;28;20076;-82
2023/10/02 07:18:49;;;;;;;27.50;15.35;;;16.30;99.90;;;;;;5053334;28;20049;-82
2023/10/02 07:21:21;;;;;;;28.05;15.77;;;16.30;99.90;;;;;;5052981;28;20053;-82
2023/10/02 07:23:48;;;;;;;27.05;15.32;;;16.30;99.90;;;;;;5067124;28;20057;-84
2023/10/02 07:26:19;;;;;;;26.33;14.15;;;16.40;99.90;;;;;;5050563;28;20049;-82
2023/10/02 07:28:50;;;;;;;27.85;15.23;;;16.40;99.90;;;;;;5055749;28;20550;-83
2023/10/02 07:31:20;;;;;;;25.98;14.93;;;16.40;99.90;;;;;;5033678;28;20124;-84
2023/10/02 07:33:55;;;;;;;28.63;15.68;;;16.40;99.90;;;;;;5043004;28;20420;-84
2023/10/02 07:36:21;;;;;;;33.50;17.10;;;16.50;99.90;;;;;;5052524;28;20080;-82
2023/10/02 07:38:49;;;;;;;27.88;15.95;;;16.50;99.90;;;;;;5035113;28;20088;-80
2023/10/02 07:41:25;;;;;;;31.88;15.57;;;16.50;99.90;;;;;;5042699;28;20127;-80
2023/10/02 07:43:55;;;;;;;30.35;16.77;;;16.60;99.90;;;;;;5036361;28;20044;-80
2023/10/02 07:46:21;;;;;;;31.35;14.88;;;16.60;99.90;;;;;;5040439;28;20093;-78
2023/10/02 07:48:57;;;;;;;28.15;15.45;;;16.70;99.90;;;;;;5045155;28;20064;-80
2023/10/02 07:51:36;;;;;;;34.15;17.40;;;16.70;99.90;;;;;;5052059;28;20067;-80
2023/10/02 07:54:13;;;;;;;32.70;16.48;;;16.80;99.90;;;;;;5051277;28;20056;-81
2023/10/02 07:56:41;;;;;;;32.90;17.40;;;16.80;99.90;;;;;;5041872;28;20113;-81
2023/10/02 07:59:09;;;;;;;29.05;16.45;;;16.90;99.90;;;;;;5053415;28;20041;-80
2023/10/02 08:01:36;;;;;;;33.53;16.38;;;17.00;99.90;;;;;;5036633;28;20048;-81
2023/10/02 08:04:02;;;;;;;29.08;14.88;;;17.00;99.90;;;;;;5052858;28;20041;-80
2023/10/02 08:11:49;;;;;;;30.92;16.67;;;17.20;99.90;;;;;;5038188;28;20048;-80
2023/10/02 08:19:59;;;;;;;37.70;17.25;;;17.30;99.90;;;;;;5017324;28;20057;-81
2023/10/02 08:22:44;;;;;;;34.00;17.67;;;17.40;99.90;;;;;;5030512;28;20105;-81
2023/10/02 08:25:13;;;;;;;35.03;17.58;;;17.40;99.90;;;;;;5030721;28;20069;-81
2023/10/02 08:27:55;;;;;;;30.73;14.98;;;17.40;99.90;;;;;;5028339;28;20041;-80
2023/10/02 08:30:32;;;;;;;35.13;17.83;;;17.50;99.90;;;;;;5050691;28;20044;-83
2023/10/02 08:33:08;;;;;;;36.75;17.60;;;17.50;99.90;;;;;;5052707;28;20057;-85
2023/10/02 08:35:37;;;;;;;32.60;18.08;;;17.60;99.90;;;;;;5046509;28;20049;-85
2023/10/02 08:38:07;;;;;;;33.17;17.73;;;17.60;99.90;;;;;;5053815;28;20036;-85
2023/10/02 08:40:34;;;;;;;37.53;18.95;;;17.60;99.90;;;;;;5036754;28;20128;-86
2023/10/02 08:43:05;;;;;;;33.78;18.75;;;17.70;99.90;;;;;;5055960;28;20056;-84
2023/10/02 08:45:33;;;;;;;34.88;19.00;;;17.80;99.90;;;;;;5022010;28;20076;-78
2023/10/02 08:48:07;;;;;;;38.72;20.52;;;17.80;99.90;;;;;;5050897;28;20053;-79
2023/10/02 08:50:34;;;;;;;32.35;18.77;;;17.80;99.90;;;;;;5055033;28;20084;-77
2023/10/02 08:53:04;;;;;;;38.35;18.95;;;17.90;99.90;;;;;;5047847;28;20095;-81
2023/10/02 08:55:36;;;;;;;37.33;18.05;;;18.00;99.90;;;;;;5043460;28;20040;-82
2023/10/02 08:58:15;;;;;;;35.88;19.23;;;18.10;99.90;;;;;;5046569;28;20079;-82
2023/10/02 09:01:37;;;;;;;35.30;18.67;;;18.20;99.90;;;;;;5046313;28;20053;-81
2023/10/02 09:04:21;;;;;;;35.92;18.67;;;18.40;99.90;;;;;;5047602;28;20053;-87
2023/10/02 09:06:41;;;;;;;33.92;18.35;;;18.50;99.90;;;;;;5056774;28;20088;-88
2023/10/02 09:09:20;;;;;;;33.38;18.88;;;18.50;99.90;;;;;;5052628;28;20041;-88
2023/10/02 09:12:03;;;;;;;34.72;18.05;;;18.60;99.90;;;;;;5049550;28;20052;-88
2023/10/02 09:17:18;;;;;;;35.08;17.77;;;18.60;99.90;;;;;;5056933;28;20140;-83
2023/10/02 09:20:15;;;;;;;31.20;17.35;;;18.70;99.90;;;;;;5052955;28;20057;-85
2023/10/02 09:22:58;;;;;;;33.92;17.02;;;18.70;99.90;;;;;;5040084;28;20056;-85
2023/10/02 09:25:37;;;;;;;33.95;17.65;;;18.80;99.90;;;;;;5056147;28;20049;-84
2023/10/02 09:28:13;;;;;;;33.75;18.15;;;18.90;99.90;;;;;;5046486;28;20051;-81
2023/10/02 09:30:41;;;;;;;33.72;17.73;;;19.00;99.90;;;;;;5051718;28;20041;-81
2023/10/02 09:33:25;;;;;;;34.95;17.75;;;19.10;99.90;;;;;;5044225;28;20164;-81
2023/10/02 09:36:15;;;;;;;32.27;16.37;;;19.30;99.90;;;;;;5039266;28;20057;-81
2023/10/02 09:38:45;;;;;;;38.53;17.63;;;19.40;99.90;;;;;;5048862;28;20082;-82
2023/10/02 09:41:31;;;;;;;33.60;17.17;;;19.50;99.90;;;;;;5049110;28;20053;-81
2023/10/02 09:44:15;;;;;;;29.33;16.35;;;19.70;99.90;;;;;;5049309;28;20063;-81
2023/10/02 09:46:41;;;;;;;29.98;15.00;;;19.90;99.90;;;;;;5054099;28;20099;-82
2023/10/02 09:49:21;;;;;;;30.45;16.42;;;20.00;99.90;;;;;;5050836;28;20063;-80
2023/10/02 09:52:15;;;;;;;31.05;15.60;;;20.10;99.90;;;;;;5028237;28;20086;-81
2023/10/02 09:55:03;;;;;;;27.38;15.45;;;20.10;99.90;;;;;;5037824;28;20040;-86
2023/10/02 09:57:49;;;;;;;31.25;15.50;;;20.10;99.90;;;;;;5059974;28;20124;-86
2023/10/02 10:00:34;;;;;;;27.27;14.82;;;20.10;99.90;;;;;;5050288;28;20096;-86
2023/10/02 10:03:24;;;;;;;29.85;15.07;;;20.10;99.90;;;;;;5034340;28;20053;-86
2023/10/02 10:06:19;;;;;;;30.42;14.75;;;20.10;99.90;;;;;;5052689;28;20079;-86
2023/10/02 10:11:43;;;;;;;29.58;14.98;;;20.10;99.90;;;;;;5050978;28;20076;-87
2023/10/02 10:14:39;;;;;;;25.17;14.25;;;20.10;99.90;;;;;;5046986;28;20052;-85
2023/10/02 10:17:18;;;;;;;30.85;15.10;;;20.20;99.90;;;;;;5059664;28;20098;-87
2023/10/02 10:20:08;;;;;;;29.10;14.82;;;20.30;99.90;;;;;;5048439;28;20049;-84
2023/10/02 10:22:38;;;;;;;29.00;14.95;;;20.30;99.90;;;;;;5048599;28;20053;-83
2023/10/02 10:25:32;;;;;;;32.30;15.57;;;20.40;99.90;;;;;;5047719;28;20113;-82
2023/10/02 10:28:05;;;;;;;29.40;14.90;;;20.50;99.90;;;;;;5055648;28;20421;-85
2023/10/02 10:30:45;;;;;;;25.63;14.23;;;20.50;99.90;;;;;;5050403;28;20493;-85
2023/10/02 10:35:48;;;;;;;33.97;16.30;;;20.60;99.90;;;;;;5045855;28;20052;-83
2023/10/02 10:38:47;;;;;;;28.65;13.77;;;20.80;99.90;;;;;;5046916;28;20045;-85
2023/10/02 10:41:35;;;;;;;29.25;14.60;;;20.90;99.90;;;;;;5044314;28;20033;-85
2023/10/02 10:44:11;;;;;;;27.30;14.13;;;21.10;99.90;;;;;;5047961;28;20098;-85
2023/10/02 10:46:46;;;;;;;27.55;14.18;;;21.30;99.90;;;;;;5048036;28;20045;-81
2023/10/02 10:49:23;;;;;;;29.23;15.63;;;21.40;99.90;;;;;;5034034;28;20441;-85
2023/10/02 10:51:52;;;;;;;29.20;15.38;;;21.40;99.90;;;;;;5051584;28;20056;-84
2023/10/02 10:54:19;;;;;;;26.45;15.65;;;21.50;99.90;;;;;;5049205;28;20045;-85
2023/10/02 10:56:56;;;;;;;29.15;15.40;;;21.50;99.90;;;;;;5052437;28;20041;-82
2023/10/02 10:59:34;;;;;;;24.35;15.13;;;21.40;99.90;;;;;;5054299;28;20045;-85
2023/10/02 11:02:15;;;;;;;30.10;15.07;;;21.40;99.90;;;;;;5057173;28;20057;-88
2023/10/02 11:04:53;;;;;;;24.85;15.05;;;21.40;99.90;;;;;;5055154;28;20049;-90
2023/10/02 11:07:23;;;;;;;28.75;15.43;;;21.40;99.90;;;;;;5053464;28;20077;-83
2023/10/02 11:10:15;;;;;;;25.10;14.32;;;21.50;99.90;;;;;;5042277;28;20049;-84
2023/10/02 11:12:59;;;;;;;28.80;14.93;;;21.50;99.90;;;;;;5038346;28;20049;-84
2023/10/02 11:15:54;;;;;;;29.17;14.90;;;21.50;99.90;;;;;;5055601;28;20049;-83
2023/10/02 11:18:26;;;;;;;28.00;16.13;;;21.60;99.90;;;;;;5032083;28;20291;-82
2023/10/02 11:20:57;;;;;;;29.13;16.20;;;21.60;99.90;;;;;;5038240;28;20138;-83
2023/10/02 11:23:39;;;;;;;29.25;17.25;;;21.70;99.90;;;;;;5039357;28;20061;-83
2023/10/02 11:26:13;;;;;;;30.15;17.83;;;21.70;99.90;;;;;;5039254;28;20060;-85
2023/10/02 11:28:42;;;;;;;32.33;17.27;;;21.70;99.90;;;;;;5022998;28;20132;-80
2023/10/02 11:31:32;;;;;;;32.13;16.58;;;21.70;99.90;;;;;;5052248;28;20447;-85
2023/10/02 11:34:08;;;;;;;30.48;16.58;;;21.70;99.90;;;;;;5053958;28;20059;-84
2023/10/02 11:36:37;;;;;;;31.90;17.40;;;21.70;99.90;;;;;;5057449;28;20048;-84
2023/10/02 11:39:16;;;;;;;26.35;16.90;;;21.80;99.90;;;;;;5050608;28;20060;-81
2023/10/02 11:41:43;;;;;;;29.30;17.42;;;21.90;99.90;;;;;;5053195;28;20049;-82
2023/10/02 11:44:11;;;;;;;29.83;16.70;;;21.90;99.90;;;;;;5055854;28;20813;-86
2023/10/02 11:46:48;;;;;;;28.42;16.45;;;21.90;99.90;;;;;;5057795;28;20045;-84
2023/10/02 11:49:18;;;;;;;29.63;16.10;;;22.00;99.90;;;;;;5046936;28;20049;-84
2023/10/02 11:51:44;;;;;;;32.67;17.83;;;22.10;99.90;;;;;;5024944;28;20530;-84
2023/10/02 11:54:11;;;;;;;34.30;18.67;;;22.10;99.90;;;;;;5054830;28;20052;-84
2023/10/02 11:56:38;;;;;;;28.63;17.75;;;22.10;99.90;;;;;;5054409;28;20124;-84
2023/10/02 11:59:04;;;;;;;28.33;17.10;;;22.10;99.90;;;;;;5053147;28;20052;-84
2023/10/02 12:01:30;;;;;;;34.88;18.52;;;22.10;99.90;;;;;;5037352;28;20051;-83
2023/10/02 12:03:57;;;;;;;33.45;19.30;;;22.00;99.90;;;;;;5054060;28;20492;-82
2023/10/02 12:06:27;;;;;;;35.45;19.65;;;22.00;99.90;;;;;;5054275;28;20123;-84
2023/10/02 12:08:57;;;;;;;31.83;18.63;;;21.90;99.90;;;;;;5055813;28;20135;-84
2023/10/02 12:11:28;;;;;;;33.30;19.35;;;22.00;99.90;;;;;;5053515;28;20049;-84
2023/10/02 12:13:54;;;;;;;33.60;20.27;;;22.00;99.90;;;;;;5050667;28;20045;-82
2023/10/02 12:16:24;;;;;;;30.98;19.30;;;21.90;99.90;;;;;;5048789;28;20418;-87
2023/10/02 12:18:50;;;;;;;31.85;19.17;;;21.90;99.90;;;;;;5032390;28;20314;-81
2023/10/02 12:21:17;;;;;;;32.92;18.23;;;21.80;99.90;;;;;;5055042;28;20124;-84
2023/10/02 12:23:44;;;;;;;29.48;17.67;;;21.80;99.90;;;;;;5055156;28;20051;-84
2023/10/02 12:26:17;;;;;;;29.80;16.95;;;21.80;99.90;;;;;;5054841;28;20045;-79
2023/10/02 12:28:43;;;;;;;28.75;17.23;;;21.80;99.90;;;;;;5053721;28;20041;-82
2023/10/02 12:31:14;;;;;;;31.88;19.25;;;21.90;99.90;;;;;;5054356;28;20047;-81
2023/10/02 12:33:56;;;;;;;32.67;18.35;;;22.00;99.90;;;;;;5053648;28;20139;-80
2023/10/02 12:36:23;;;;;;;28.60;17.67;;;22.00;99.90;;;;;;5053622;28;20053;-82
2023/10/02 12:38:50;;;;;;;28.80;16.85;;;22.10;99.90;;;;;;5053041;28;20390;-82
2023/10/02 12:41:19;;;;;;;28.65;17.30;;;22.20;99.90;;;;;;5043541;28;20056;-81
2023/10/02 12:43:46;;;;;;;32.03;17.33;;;22.20;99.90;;;;;;5032970;28;20489;-82
2023/10/02 12:46:15;;;;;;;30.25;17.27;;;22.20;99.90;;;;;;5051123;28;20119;-82
2023/10/02 12:48:46;;;;;;;30.52;16.90;;;22.20;99.90;;;;;;5049626;28;20076;-82
2023/10/02 12:51:16;;;;;;;29.60;16.52;;;22.20;99.90;;;;;;5047050;28;20475;-83
2023/10/02 12:53:45;;;;;;;35.15;16.83;;;22.20;99.90;;;;;;5031348;28;20041;-83
2023/10/02 12:56:20;;;;;;;28.73;17.55;;;22.20;99.90;;;;;;5052323;28;20045;-83
2023/10/02 12:58:48;;;;;;;29.90;16.40;;;22.20;99.90;;;;;;5052641;28;20045;-83
2023/10/02 13:01:18;;;;;;;30.95;17.42;;;22.20;99.90;;;;;;5052757;28;20439;-83
2023/10/02 13:03:44;;;;;;;27.60;16.52;;;22.20;99.90;;;;;;5047181;28;20065;-82
2023/10/02 13:06:15;;;;;;;31.48;18.27;;;22.20;99.90;;;;;;5044392;28;20075;-84
2023/10/02 13:08:45;;;;;;;32.22;16.95;;;22.20;99.90;;;;;;5052150;28;20048;-86
2023/10/02 13:11:12;;;;;;;29.67;15.50;;;22.10;99.90;;;;;;5051371;28;20471;-84
2023/10/02 13:13:44;;;;;;;32.05;17.52;;;22.00;99.90;;;;;;5049730;28;20044;-84
2023/10/02 13:16:11;;;;;;;29.35;16.23;;;22.00;99.90;;;;;;5048772;28;20084;-84
2023/10/02 13:18:41;;;;;;;28.17;16.05;;;22.00;99.90;;;;;;5047749;28;20412;-84
2023/10/02 13:21:07;;;;;;;37.67;17.20;;;22.00;99.90;;;;;;5047147;28;20048;-84
2023/10/02 13:23:33;;;;;;;33.38;16.65;;;22.00;99.90;;;;;;5046730;28;20052;-85
2023/10/02 13:25:59;;;;;;;27.95;15.30;;;22.00;99.90;;;;;;5042126;28;20038;-85
2023/10/02 13:28:24;;;;;;;29.83;15.35;;;22.00;99.90;;;;;;5051533;28;20044;-83
2023/10/02 13:30:52;;;;;;;30.10;16.48;;;22.00;99.90;;;;;;5042662;28;20049;-83
2023/10/02 13:33:20;;;;;;;27.23;15.60;;;22.00;99.90;;;;;;5045152;28;20045;-83
2023/10/02 13:35:54;;;;;;;26.30;15.48;;;22.00;99.90;;;;;;5051189;28;20127;-83
2023/10/02 13:38:19;;;;;;;30.30;16.37;;;22.00;99.90;;;;;;5053692;28;20408;-81
2023/10/02 13:40:46;;;;;;;31.38;16.80;;;22.00;99.90;;;;;;5041720;28;20068;-84
2023/10/02 13:43:11;;;;;;;31.30;16.42;;;22.00;99.90;;;;;;5032495;28;20068;-83
2023/10/02 13:45:37;;;;;;;29.95;16.58;;;22.00;99.90;;;;;;5034273;28;20393;-82
2023/10/02 13:48:06;;;;;;;30.27;17.55;;;22.00;99.90;;;;;;5047739;28;20033;-87
2023/10/02 13:50:37;;;;;;;31.40;16.30;;;22.00;99.90;;;;;;5049880;28;20045;-88
2023/10/02 13:53:04;;;;;;;28.08;16.25;;;22.00;99.90;;;;;;5037918;28;20060;-88